createdAt,value
2023-05-10T00:00:49.418Z,6.03
2023-05-10T00:03:17.268Z,5.99
2023-05-10T00:05:44.689Z,5.96
2023-05-10T00:08:12.573Z,5.94
2023-05-10T00:10:39.871Z,5.92
2023-05-10T00:13:07.393Z,5.91
2023-05-10T00:15:36.132Z,5.88
2023-05-10T00:18:04.061Z,5.86
2023-05-10T00:20:31.416Z,5.82
2023-05-10T00:22:59.165Z,5.80
2023-05-10T00:25:26.729Z,5.78
2023-05-10T00:27:56.571Z,5.77
2023-05-10T00:30:23.851Z,5.78
2023-05-10T00:32:53.067Z,5.76
2023-05-10T00:35:20.780Z,5.76
2023-05-10T00:37:48.826Z,5.77
2023-05-10T00:40:16.595Z,5.75
2023-05-10T00:42:44.106Z,5.72
2023-05-10T00:45:12.846Z,5.66
2023-05-10T00:47:41.030Z,5.60
2023-05-10T00:50:10.215Z,5.56
2023-05-10T00:52:38.247Z,5.52
2023-05-10T00:55:07.505Z,5.53
2023-05-10T00:57:34.649Z,5.55
2023-05-10T01:00:03.618Z,5.56
2023-05-10T01:06:25.310Z,5.55
2023-05-10T01:10:20.136Z,5.52
2023-05-10T01:14:14.444Z,5.52
2023-05-10T01:18:04.198Z,5.52
2023-05-10T01:21:45.018Z,5.53
2023-05-10T01:25:44.518Z,5.47
2023-05-10T01:29:58.169Z,5.45
2023-05-10T01:33:39.331Z,5.40
2023-05-10T01:41:22.043Z,5.31
2023-05-10T01:45:24.711Z,5.26
2023-05-10T01:49:14.038Z,5.21
2023-05-10T01:53:04.028Z,5.19
2023-05-10T02:00:47.615Z,5.12
2023-05-10T02:04:38.359Z,5.05
2023-05-10T02:08:44.261Z,4.97
2023-05-10T02:16:24.088Z,4.77
2023-05-10T02:20:16.516Z,4.73
2023-05-10T02:24:03.549Z,4.68
2023-05-10T02:27:53.637Z,4.61
2023-05-10T02:31:41.151Z,4.60
2023-05-10T02:35:34.931Z,4.62
2023-05-10T02:39:25.044Z,4.64
2023-05-10T02:43:12.562Z,4.69
2023-05-10T02:47:07.276Z,4.68
2023-05-10T02:51:00.949Z,4.70
2023-05-10T02:58:46.549Z,4.65
2023-05-10T03:02:35.179Z,4.65
2023-05-10T03:06:28.929Z,4.64
2023-05-10T03:10:16.793Z,4.62
2023-05-10T03:14:24.512Z,4.56
2023-05-10T03:18:45.545Z,4.52
2023-05-10T03:22:32.705Z,4.48
2023-05-10T03:30:08.537Z,4.47
2023-05-10T03:33:55.493Z,4.44
2023-05-10T03:37:25.440Z,4.45
2023-05-10T03:41:12.369Z,4.47
2023-05-10T03:44:59.254Z,4.51
2023-05-10T03:48:46.461Z,4.52
2023-05-10T03:52:37.041Z,4.60
2023-05-10T03:56:24.170Z,4.69
2023-05-10T04:00:11.436Z,4.76
2023-05-10T04:04:00.645Z,4.83
2023-05-10T04:07:47.715Z,4.96
2023-05-10T04:10:56.345Z,5.04
2023-05-10T04:14:45.526Z,5.08
2023-05-10T04:18:33.886Z,5.21
2023-05-10T04:22:21.037Z,5.38
2023-05-10T04:26:08.016Z,5.55
2023-05-10T04:29:55.117Z,5.72
2023-05-10T04:33:42.400Z,5.85
2023-05-10T04:37:29.548Z,6.00
2023-05-10T04:40:44.380Z,6.17
2023-05-10T04:44:15.810Z,6.35
2023-05-10T04:47:41.938Z,6.51
2023-05-10T04:50:56.186Z,6.66
2023-05-10T04:54:23.199Z,6.77
2023-05-10T04:57:54.915Z,6.88
2023-05-10T05:01:21.944Z,7.00
2023-05-10T05:04:30.624Z,7.05
2023-05-10T05:08:06.397Z,7.08
2023-05-10T05:11:56.802Z,7.13
2023-05-10T05:15:06.003Z,7.16
2023-05-10T05:18:41.597Z,7.22
2023-05-10T05:22:06.181Z,7.30
2023-05-10T05:25:38.464Z,7.37
2023-05-10T05:28:46.013Z,7.44
2023-05-10T05:32:37.148Z,7.49
2023-05-10T05:40:08.655Z,7.75
2023-05-10T05:43:46.472Z,7.89
2023-05-10T05:47:33.324Z,8.08
2023-05-10T05:51:20.133Z,8.33
2023-05-10T05:55:07.212Z,8.61
2023-05-10T05:58:40.143Z,8.94
2023-05-10T06:02:18.872Z,9.20
2023-05-10T06:05:45.860Z,9.43
2023-05-10T06:09:32.855Z,9.72
2023-05-10T06:12:15.551Z,9.93
2023-05-10T06:15:42.777Z,10.07
2023-05-10T06:19:29.973Z,10.22
2023-05-10T06:23:05.837Z,10.38
2023-05-10T06:26:53.024Z,10.51
2023-05-10T06:30:40.248Z,10.66
2023-05-10T06:34:27.515Z,10.86
2023-05-10T06:38:20.387Z,11.01
2023-05-10T06:45:18.956Z,11.35
2023-05-10T06:48:39.523Z,11.49
2023-05-10T06:52:31.010Z,11.68
2023-05-10T06:56:18.175Z,11.97
2023-05-10T07:00:06.148Z,12.24
2023-05-10T07:03:54.951Z,12.55
2023-05-10T07:07:45.733Z,12.78
2023-05-10T07:11:34.093Z,12.97
2023-05-10T07:15:27.924Z,13.23
2023-05-10T07:19:27.081Z,13.41
2023-05-10T07:23:20.531Z,13.51
2023-05-10T07:27:10.799Z,13.73
2023-05-10T07:31:02.732Z,13.90
2023-05-10T07:38:47.734Z,14.41
2023-05-10T07:42:42.260Z,14.54
2023-05-10T07:46:33.345Z,14.75
2023-05-10T07:50:29.059Z,14.93
2023-05-10T07:54:17.274Z,15.01
2023-05-10T07:58:14.033Z,15.10
2023-05-10T08:01:21.329Z,15.37
2023-05-10T08:04:52.660Z,15.54
2023-05-10T08:07:28.630Z,15.87
2023-05-10T08:09:55.961Z,16.10
2023-05-10T08:12:24.288Z,16.02
2023-05-10T08:14:51.480Z,15.95
2023-05-10T08:17:19.940Z,16.07
2023-05-10T08:19:47.874Z,16.15
2023-05-10T08:22:15.347Z,16.05
2023-05-10T08:24:43.391Z,15.93
2023-05-10T08:27:11.685Z,16.00
2023-05-10T08:29:59.423Z,16.03
2023-05-10T08:32:26.807Z,15.91
2023-05-10T08:34:54.303Z,15.94
2023-05-10T08:38:21.773Z,16.05
2023-05-10T08:40:56.670Z,16.24
2023-05-10T08:44:07.108Z,16.23
2023-05-10T08:47:42.761Z,16.21
2023-05-10T08:51:30.168Z,16.33
2023-05-10T08:55:18.441Z,16.64
2023-05-10T08:59:14.290Z,16.78
2023-05-10T09:03:02.181Z,17.17
2023-05-10T09:06:55.907Z,17.43
2023-05-10T09:10:44.028Z,17.43
2023-05-10T09:14:42.091Z,17.71
2023-05-10T09:18:34.375Z,17.75
2023-05-10T09:22:23.494Z,17.71
2023-05-10T09:26:15.794Z,17.68
2023-05-10T09:30:24.404Z,17.61
2023-05-10T09:34:20.104Z,17.81
2023-05-10T09:38:14.282Z,17.99
2023-05-10T09:42:05.256Z,17.75
2023-05-10T09:45:53.598Z,17.89
2023-05-10T09:49:47.211Z,17.77
2023-05-10T10:05:36.818Z,18.71
2023-05-10T10:09:32.317Z,19.00
2023-05-10T10:13:20.064Z,19.00
2023-05-10T10:17:11.739Z,18.81
2023-05-10T10:21:01.359Z,19.05
2023-05-10T10:25:07.776Z,18.91
2023-05-10T10:28:56.018Z,18.32
2023-05-10T10:33:24.284Z,18.13
2023-05-10T10:36:38.725Z,18.46
2023-05-10T10:39:12.030Z,18.73
2023-05-10T10:41:57.025Z,18.75
2023-05-10T10:44:29.161Z,18.67
2023-05-10T10:47:32.346Z,18.62
2023-05-10T10:50:14.253Z,18.65
2023-05-10T10:52:44.281Z,18.67
2023-05-10T10:55:20.540Z,18.50
2023-05-10T10:58:02.277Z,18.72
2023-05-10T11:00:38.866Z,18.87
2023-05-10T11:03:18.894Z,18.84
2023-05-10T11:06:08.314Z,18.64
2023-05-10T11:08:46.409Z,18.96
2023-05-10T11:11:21.886Z,19.33
2023-05-10T11:13:53.536Z,19.15
2023-05-10T11:16:25.460Z,18.75
2023-05-10T11:19:11.243Z,18.72
2023-05-10T11:21:52.823Z,18.90
2023-05-10T11:24:24.617Z,19.17
2023-05-10T11:26:55.052Z,19.21
2023-05-10T11:29:22.664Z,18.79
2023-05-10T11:31:51.109Z,18.74
2023-05-10T11:34:35.116Z,18.99
2023-05-10T11:37:03.404Z,19.03
2023-05-10T11:39:32.994Z,18.69
2023-05-10T11:42:00.880Z,18.30
2023-05-10T11:44:35.034Z,18.50
2023-05-10T11:47:10.553Z,18.71
2023-05-10T11:49:38.237Z,18.53
2023-05-10T11:52:12.465Z,18.48
2023-05-10T11:54:47.858Z,18.62
2023-05-10T11:57:15.929Z,18.64
2023-05-10T11:59:44.943Z,18.51
2023-05-10T12:02:18.846Z,18.68
2023-05-10T12:04:47.201Z,19.07
2023-05-10T12:07:16.327Z,19.42
2023-05-10T12:10:05.543Z,19.38
2023-05-10T12:12:41.359Z,19.33
2023-05-10T12:15:26.156Z,19.51
2023-05-10T12:17:53.983Z,19.78
2023-05-10T12:20:30.106Z,19.75
2023-05-10T12:23:03.397Z,19.55
2023-05-10T12:25:36.730Z,19.33
2023-05-10T12:30:55.870Z,19.13
2023-05-10T12:33:23.262Z,19.06
2023-05-10T12:35:53.334Z,19.36
2023-05-10T12:38:32.460Z,19.79
2023-05-10T12:41:02.319Z,20.17
2023-05-10T12:43:30.081Z,20.49
2023-05-10T12:45:58.606Z,20.76
2023-05-10T12:48:26.496Z,20.78
2023-05-10T12:50:54.325Z,20.83
2023-05-10T12:53:22.898Z,20.46
2023-05-10T12:55:50.187Z,19.90
2023-05-10T12:58:31.465Z,19.74
2023-05-10T13:01:04.381Z,19.81
2023-05-10T13:03:31.934Z,19.83
2023-05-10T13:05:59.175Z,20.14
2023-05-10T13:08:26.952Z,20.29
2023-05-10T13:10:54.558Z,20.48
2023-05-10T13:13:21.799Z,20.59
2023-05-10T13:15:50.048Z,20.57
2023-05-10T13:18:17.603Z,20.68
2023-05-10T13:20:45.735Z,20.78
2023-05-10T13:23:13.606Z,20.67
2023-05-10T13:25:41.504Z,20.31
2023-05-10T13:28:08.909Z,20.20
2023-05-10T13:30:37.347Z,20.45
2023-05-10T13:33:04.745Z,20.60
2023-05-10T13:35:32.103Z,20.84
2023-05-10T13:38:00.211Z,20.44
2023-05-10T13:40:29.266Z,20.19
2023-05-10T13:42:56.570Z,20.28
2023-05-10T13:45:23.769Z,20.43
2023-05-10T13:47:51.613Z,20.46
2023-05-10T13:50:19.384Z,20.59
2023-05-10T13:52:47.489Z,20.50
2023-05-10T13:55:15.447Z,20.52
2023-05-10T13:57:44.637Z,20.41
2023-05-10T14:00:12.652Z,20.10
2023-05-10T14:02:40.922Z,20.26
2023-05-10T14:05:08.852Z,20.39
2023-05-10T14:07:36.368Z,20.35
2023-05-10T14:10:04.364Z,20.14
2023-05-10T14:12:32.121Z,19.87
2023-05-10T14:15:01.517Z,19.85
2023-05-10T14:17:29.018Z,19.94
2023-05-10T14:19:56.823Z,19.91
2023-05-10T14:22:24.640Z,19.83
2023-05-10T14:24:52.132Z,19.64
2023-05-10T14:27:19.776Z,19.45
2023-05-10T14:29:47.573Z,19.45
2023-05-10T14:32:14.874Z,19.67
2023-05-10T14:34:42.811Z,19.67
2023-05-10T14:37:13.159Z,19.74
2023-05-10T14:39:40.746Z,19.74
2023-05-10T14:42:08.782Z,19.54
2023-05-10T14:44:36.852Z,19.50
2023-05-10T14:47:04.136Z,19.62
2023-05-10T14:49:34.096Z,19.74
2023-05-10T14:52:02.391Z,19.76
2023-05-10T14:54:29.666Z,19.77
2023-05-10T14:56:57.527Z,19.70
2023-05-10T14:59:25.359Z,19.67
2023-05-10T15:01:53.522Z,19.66
2023-05-10T15:04:22.746Z,19.65
2023-05-10T15:06:52.235Z,19.54
2023-05-10T15:09:19.579Z,19.36
2023-05-10T15:11:47.093Z,19.54
2023-05-10T15:14:14.812Z,19.44
2023-05-10T15:16:42.772Z,19.47
2023-05-10T15:19:10.480Z,19.60
2023-05-10T15:21:40.734Z,19.81
2023-05-10T15:24:09.372Z,19.84
2023-05-10T15:26:36.833Z,19.66
2023-05-10T15:29:05.348Z,19.62
2023-05-10T15:31:32.489Z,19.64
2023-05-10T15:34:00.629Z,19.76
2023-05-10T15:36:28.462Z,19.86
2023-05-10T15:38:57.340Z,19.79
2023-05-10T15:41:25.856Z,19.59
2023-05-10T15:43:53.664Z,19.12
2023-05-10T15:46:21.078Z,18.92
2023-05-10T15:48:48.498Z,18.87
2023-05-10T15:51:16.451Z,18.79
2023-05-10T15:53:56.359Z,18.80
2023-05-10T15:56:31.748Z,18.97
2023-05-10T15:58:59.753Z,19.01
2023-05-10T16:01:27.219Z,18.90
2023-05-10T16:03:55.186Z,18.83
2023-05-10T16:06:22.618Z,18.82
2023-05-10T16:08:49.880Z,18.78
2023-05-10T16:11:17.969Z,18.77
2023-05-10T16:13:45.304Z,18.62
2023-05-10T16:16:12.836Z,18.36
2023-05-10T16:18:40.508Z,18.26
2023-05-10T16:21:08.198Z,18.14
2023-05-10T16:23:35.438Z,18.03
2023-05-10T16:26:05.815Z,17.88
2023-05-10T16:28:33.508Z,17.73
2023-05-10T16:31:00.787Z,17.66
2023-05-10T16:33:28.580Z,17.54
2023-05-10T16:35:56.000Z,17.46
2023-05-10T16:38:23.384Z,17.40
2023-05-10T16:40:51.504Z,17.32
2023-05-10T16:43:19.711Z,17.19
2023-05-10T16:45:47.053Z,17.05
2023-05-10T16:48:14.593Z,16.92
2023-05-10T16:50:45.185Z,16.79
2023-05-10T16:53:12.606Z,16.66
2023-05-10T16:55:40.351Z,16.59
2023-05-10T16:58:07.829Z,16.53
2023-05-10T17:00:35.197Z,16.47
2023-05-10T17:03:02.557Z,16.45
2023-05-10T17:05:30.243Z,16.41
2023-05-10T17:07:57.470Z,16.34
2023-05-10T17:10:24.656Z,16.27
2023-05-10T17:12:52.065Z,16.22
2023-05-10T17:15:19.849Z,16.12
2023-05-10T17:17:48.428Z,16.05
2023-05-10T17:20:15.775Z,16.00
2023-05-10T17:22:43.036Z,15.95
2023-05-10T17:25:10.788Z,15.93
2023-05-10T17:27:38.258Z,15.89
2023-05-10T17:30:09.009Z,15.86
2023-05-10T17:32:37.085Z,15.76
2023-05-10T17:35:05.570Z,15.66
2023-05-10T17:37:33.434Z,15.56
2023-05-10T17:40:01.803Z,15.50
2023-05-10T17:42:29.122Z,15.46
2023-05-10T17:44:56.710Z,15.35
2023-05-10T17:47:24.508Z,15.28
2023-05-10T17:49:51.805Z,15.18
2023-05-10T17:52:19.391Z,15.10
2023-05-10T17:54:46.847Z,15.04
2023-05-10T17:57:14.190Z,14.96
2023-05-10T17:59:41.393Z,14.89
2023-05-10T18:02:08.715Z,14.85
2023-05-10T18:04:36.534Z,14.79
2023-05-10T18:07:04.044Z,14.71
2023-05-10T18:09:32.417Z,14.64
2023-05-10T18:12:00.204Z,14.57
2023-05-10T18:14:39.611Z,14.48
2023-05-10T18:17:08.151Z,14.43
2023-05-10T18:19:35.678Z,14.33
2023-05-10T18:22:03.289Z,14.27
2023-05-10T18:24:38.878Z,14.19
2023-05-10T18:27:10.770Z,14.08
2023-05-10T18:29:38.876Z,14.02
2023-05-10T18:32:07.408Z,13.96
2023-05-10T18:34:35.085Z,13.85
2023-05-10T18:37:08.071Z,13.76
2023-05-10T18:39:37.105Z,13.69
2023-05-10T18:42:08.954Z,13.61
2023-05-10T18:44:36.674Z,13.52
2023-05-10T18:47:04.211Z,13.46
2023-05-10T18:49:32.726Z,13.40
2023-05-10T18:52:00.855Z,13.34
2023-05-10T18:54:28.409Z,13.28
2023-05-10T18:56:57.716Z,13.21
2023-05-10T18:59:31.158Z,13.13
2023-05-10T19:01:58.668Z,13.08
2023-05-10T19:04:26.049Z,13.05
2023-05-10T19:06:53.818Z,12.98
2023-05-10T19:09:22.878Z,12.89
2023-05-10T19:11:51.275Z,12.83
2023-05-10T19:14:19.422Z,12.79
2023-05-10T19:16:47.196Z,12.74
2023-05-10T19:19:15.217Z,12.69
2023-05-10T19:21:42.928Z,12.65
2023-05-10T19:24:12.937Z,12.61
2023-05-10T19:26:40.350Z,12.56
2023-05-10T19:29:08.139Z,12.50
2023-05-10T19:31:36.839Z,12.46
2023-05-10T19:34:06.375Z,12.43
2023-05-10T19:36:34.902Z,12.41
2023-05-10T19:39:03.350Z,12.36
2023-05-10T19:41:30.899Z,12.36
2023-05-10T19:43:58.946Z,12.31
2023-05-10T19:46:26.525Z,12.26
2023-05-10T19:48:54.038Z,12.22
2023-05-10T19:51:22.053Z,12.17
2023-05-10T19:53:49.932Z,12.14
2023-05-10T19:56:22.122Z,12.09
2023-05-10T19:58:49.537Z,12.06
2023-05-10T20:01:17.146Z,12.03
2023-05-10T20:03:44.564Z,11.99
2023-05-10T20:06:13.383Z,11.93
2023-05-10T20:08:41.213Z,11.90
2023-05-10T20:11:08.754Z,11.83
2023-05-10T20:13:36.965Z,11.77
2023-05-10T20:16:06.377Z,11.72
2023-05-10T20:18:34.573Z,11.67
2023-05-10T20:21:02.329Z,11.64
2023-05-10T20:23:29.770Z,11.61
2023-05-10T20:25:57.847Z,11.57
2023-05-10T20:28:27.080Z,11.52
2023-05-10T20:30:56.242Z,11.48
2023-05-10T20:33:23.759Z,11.49
2023-05-10T20:35:51.883Z,11.50
2023-05-10T20:38:19.171Z,11.49
2023-05-10T20:40:47.133Z,11.47
2023-05-10T20:43:14.356Z,11.45
2023-05-10T20:45:42.158Z,11.42
2023-05-10T20:48:10.123Z,11.39
2023-05-10T20:50:37.521Z,11.35
2023-05-10T20:53:04.675Z,11.32
2023-05-10T20:55:31.962Z,11.28
2023-05-10T20:57:59.208Z,11.26
2023-05-10T21:00:26.553Z,11.22
2023-05-10T21:02:53.850Z,11.20
2023-05-10T21:05:21.383Z,11.17
2023-05-10T21:07:49.843Z,11.14
2023-05-10T21:10:17.480Z,11.10
2023-05-10T21:12:44.928Z,11.05
2023-05-10T21:15:12.355Z,11.02
2023-05-10T21:17:39.580Z,10.96
2023-05-10T21:20:07.850Z,10.93
2023-05-10T21:22:34.959Z,10.93
2023-05-10T21:25:02.476Z,10.89
2023-05-10T21:27:29.678Z,10.84
2023-05-10T21:29:57.115Z,10.79
2023-05-10T21:32:24.324Z,10.73
2023-05-10T21:34:51.522Z,10.68
2023-05-10T21:37:19.194Z,10.65
2023-05-10T21:39:46.450Z,10.61
2023-05-10T21:42:13.888Z,10.56
2023-05-10T21:44:41.340Z,10.53
2023-05-10T21:47:08.645Z,10.51
2023-05-10T21:49:36.780Z,10.49
2023-05-10T21:52:04.240Z,10.44
2023-05-10T21:54:31.436Z,10.38
2023-05-10T21:56:59.190Z,10.36
2023-05-10T21:59:26.862Z,10.34
2023-05-10T22:01:54.097Z,10.30
2023-05-10T22:04:21.539Z,10.27
2023-05-10T22:06:49.573Z,10.25
2023-05-10T22:09:17.416Z,10.24
2023-05-10T22:11:44.627Z,10.23
2023-05-10T22:14:12.008Z,10.22
2023-05-10T22:16:39.245Z,10.17
2023-05-10T22:19:06.920Z,10.10
2023-05-10T22:21:34.711Z,10.04
2023-05-10T22:24:02.130Z,10.00
2023-05-10T22:26:29.381Z,9.95
2023-05-10T22:28:56.693Z,9.91
2023-05-10T22:31:23.936Z,9.87
2023-05-10T22:33:51.414Z,9.83
2023-05-10T22:36:18.735Z,9.77
2023-05-10T22:38:46.230Z,9.74
2023-05-10T22:41:13.807Z,9.73
2023-05-10T22:43:41.031Z,9.71
2023-05-10T22:46:08.183Z,9.67
2023-05-10T22:48:39.072Z,9.62
2023-05-10T22:51:06.483Z,9.60
2023-05-10T22:53:33.660Z,9.57
2023-05-10T22:56:01.635Z,9.54
2023-05-10T22:58:28.972Z,9.53
2023-05-10T23:00:56.487Z,9.49
2023-05-10T23:03:24.022Z,9.45
2023-05-10T23:05:51.588Z,9.42
2023-05-10T23:08:18.707Z,9.36
2023-05-10T23:10:45.857Z,9.32
2023-05-10T23:13:13.730Z,9.28
2023-05-10T23:15:41.268Z,9.23
2023-05-10T23:18:10.126Z,9.20
2023-05-10T23:20:38.088Z,9.18
2023-05-10T23:23:05.263Z,9.18
2023-05-10T23:25:33.043Z,9.15
2023-05-10T23:28:00.292Z,9.12
2023-05-10T23:30:27.581Z,9.11
2023-05-10T23:32:54.794Z,9.06
2023-05-10T23:35:22.161Z,9.03
2023-05-10T23:37:50.249Z,9.01
2023-05-10T23:40:17.934Z,9.00
2023-05-10T23:42:45.594Z,9.02
2023-05-10T23:45:12.813Z,9.03
2023-05-10T23:47:40.328Z,9.02
2023-05-10T23:50:08.229Z,9.01
2023-05-10T23:52:35.489Z,9.00
2023-05-10T23:55:02.739Z,8.98
2023-05-10T23:57:30.473Z,8.97
2023-05-10T23:59:57.613Z,8.93
